Accueil
METAR-TAF:

METAR-TAF

Aéroports :

Aéroport international Chhatrapati-Shivaji

Bombay, Inde

latitude: 19-07N, longitude: 072-51E, altitude: 8 m

Observation

Le bulletin a été fait il y a 41 minutes, à 23:30 UTC
Vent 3 kt de direction variable
Température 24°C
Humidité 61%
Pression 1013 hPa
Visibilité: 3000 m
fumée

METAR: VABB 222330Z VRB03KT 3000 FU NSC 24/16 Q1013 NOSIG

Heure: 05:41 (00:11 UTC)

Prévision

Le bulletin a été fait il y a 1 heure et 11 minutes, à 23:00 UTC
Prévision valable du 23 à 00 UTC au 23 à 09 UTC
Vent 5 kt de est
Visibilité: 2000 m
Quelques nuages à une hauteur de 10000 ft
brume sèche
Evoluant progressivement
du 23 à 04 UTC au 23 à 06 UTC
Visibilité: 3000 m
fumée
Evoluant progressivement
du 23 à 07 UTC au 23 à 09 UTC
Vent 8 kt de ouest
Visibilité: 4000 m
fumée

TAF: VABB 222300Z 2300/2309 09005KT 2000 HZ FEW100 BECMG 2304/2306 3000 FU BECMG 2307/2309 28008KT 4000 FU NSC

Observations et prévisions météorologiques de plus de 4000 aéroports (messages METAR et TAF).

Les stations disponibles sont représentées par des disques jaunes et rouges sur la carte.

Passer la souris dessus pour voir le nom de la station.

Cliquer dessus pour voir les observations et prévisions météorologiques.

Pour changer de carte: cliquez sur les boutons verts avec une croix noire pour zoomer, sur le bouton vert avec un tiret pour effectuer un zoom arrière, ou sur les flèches vertes pour les cartes adjacentes.


METAR-TAF: